sensor_id;sensor_type;location;lat;lon;timestamp;P1;durP1;ratioP1;P2;durP2;ratioP2
33160;SDS011;19522;45.656;11.302;2022-11-11T00:01:16;4.35;;;1.60;;
33160;SDS011;19522;45.656;11.302;2022-11-11T00:03:41;2.50;;;1.63;;
33160;SDS011;19522;45.656;11.302;2022-11-11T00:06:14;4.18;;;1.33;;
33160;SDS011;19522;45.656;11.302;2022-11-11T00:11:11;2.08;;;1.50;;
33160;SDS011;19522;45.656;11.302;2022-11-11T00:13:38;1.67;;;1.05;;
33160;SDS011;19522;45.656;11.302;2022-11-11T00:16:05;3.78;;;1.33;;
33160;SDS011;19522;45.656;11.302;2022-11-11T00:18:38;2.55;;;1.30;;
33160;SDS011;19522;45.656;11.302;2022-11-11T00:21:23;2.25;;;1.33;;
33160;SDS011;19522;45.656;11.302;2022-11-11T00:24:16;2.72;;;1.23;;
33160;SDS011;19522;45.656;11.302;2022-11-11T00:27:02;4.25;;;1.13;;
33160;SDS011;19522;45.656;11.302;2022-11-11T00:29:29;1.98;;;1.00;;
33160;SDS011;19522;45.656;11.302;2022-11-11T00:31:55;3.13;;;0.90;;
33160;SDS011;19522;45.656;11.302;2022-11-11T00:34:39;6.55;;;0.90;;
33160;SDS011;19522;45.656;11.302;2022-11-11T00:37:04;2.72;;;1.00;;
33160;SDS011;19522;45.656;11.302;2022-11-11T00:39:30;1.63;;;0.88;;
33160;SDS011;19522;45.656;11.302;2022-11-11T00:41:55;3.00;;;0.88;;
33160;SDS011;19522;45.656;11.302;2022-11-11T00:44:21;2.70;;;1.10;;
33160;SDS011;19522;45.656;11.302;2022-11-11T00:46:46;2.90;;;1.05;;
33160;SDS011;19522;45.656;11.302;2022-11-11T00:49:30;2.70;;;1.35;;
33160;SDS011;19522;45.656;11.302;2022-11-11T00:52:14;1.20;;;0.85;;
33160;SDS011;19522;45.656;11.302;2022-11-11T00:54:43;2.67;;;0.98;;
33160;SDS011;19522;45.656;11.302;2022-11-11T00:57:08;2.40;;;0.70;;
33160;SDS011;19522;45.656;11.302;2022-11-11T00:59:34;2.83;;;1.10;;
33160;SDS011;19522;45.656;11.302;2022-11-11T01:01:59;1.40;;;1.10;;
33160;SDS011;19522;45.656;11.302;2022-11-11T01:04:25;3.83;;;1.00;;
33160;SDS011;19522;45.656;11.302;2022-11-11T01:06:50;1.67;;;0.80;;
33160;SDS011;19522;45.656;11.302;2022-11-11T01:09:15;4.25;;;1.13;;
33160;SDS011;19522;45.656;11.302;2022-11-11T01:11:41;2.92;;;0.98;;
33160;SDS011;19522;45.656;11.302;2022-11-11T01:14:06;3.20;;;0.90;;
33160;SDS011;19522;45.656;11.302;2022-11-11T01:16:32;1.60;;;0.75;;
33160;SDS011;19522;45.656;11.302;2022-11-11T01:18:57;2.35;;;0.60;;
33160;SDS011;19522;45.656;11.302;2022-11-11T01:21:23;2.58;;;1.00;;
33160;SDS011;19522;45.656;11.302;2022-11-11T01:23:50;2.15;;;0.80;;
33160;SDS011;19522;45.656;11.302;2022-11-11T01:26:24;1.55;;;1.05;;
33160;SDS011;19522;45.656;11.302;2022-11-11T01:28:51;2.53;;;1.00;;
33160;SDS011;19522;45.656;11.302;2022-11-11T01:31:19;3.13;;;1.00;;
33160;SDS011;19522;45.656;11.302;2022-11-11T01:33:46;5.95;;;1.15;;
33160;SDS011;19522;45.656;11.302;2022-11-11T01:36:13;1.70;;;0.65;;
33160;SDS011;19522;45.656;11.302;2022-11-11T01:38:40;1.80;;;0.88;;
33160;SDS011;19522;45.656;11.302;2022-11-11T01:41:14;1.35;;;0.90;;
33160;SDS011;19522;45.656;11.302;2022-11-11T01:43:56;1.80;;;1.13;;
33160;SDS011;19522;45.656;11.302;2022-11-11T01:46:25;2.17;;;0.80;;
33160;SDS011;19522;45.656;11.302;2022-11-11T01:51:54;1.00;;;0.60;;
33160;SDS011;19522;45.656;11.302;2022-11-11T02:00:16;3.17;;;1.08;;
33160;SDS011;19522;45.656;11.302;2022-11-11T02:02:51;2.50;;;0.70;;
33160;SDS011;19522;45.656;11.302;2022-11-11T02:05:25;2.67;;;0.80;;
33160;SDS011;19522;45.656;11.302;2022-11-11T02:08:21;1.15;;;0.65;;
33160;SDS011;19522;45.656;11.302;2022-11-11T02:11:01;1.60;;;0.80;;
33160;SDS011;19522;45.656;11.302;2022-11-11T02:13:29;2.55;;;0.77;;
33160;SDS011;19522;45.656;11.302;2022-11-11T02:16:13;1.27;;;0.77;;
33160;SDS011;19522;45.656;11.302;2022-11-11T02:18:40;2.20;;;0.70;;
33160;SDS011;19522;45.656;11.302;2022-11-11T02:21:11;1.02;;;0.50;;
33160;SDS011;19522;45.656;11.302;2022-11-11T02:23:50;1.25;;;0.70;;
33160;SDS011;19522;45.656;11.302;2022-11-11T02:26:24;1.90;;;0.85;;
33160;SDS011;19522;45.656;11.302;2022-11-11T02:28:53;1.08;;;0.70;;
33160;SDS011;19522;45.656;11.302;2022-11-11T02:31:19;1.92;;;0.60;;
33160;SDS011;19522;45.656;11.302;2022-11-11T02:33:51;0.82;;;0.60;;
33160;SDS011;19522;45.656;11.302;2022-11-11T02:36:17;3.33;;;0.95;;
33160;SDS011;19522;45.656;11.302;2022-11-11T02:38:43;1.05;;;0.75;;
33160;SDS011;19522;45.656;11.302;2022-11-11T02:41:09;0.95;;;0.50;;
33160;SDS011;19522;45.656;11.302;2022-11-11T02:43:53;1.63;;;0.68;;
33160;SDS011;19522;45.656;11.302;2022-11-11T02:46:18;0.90;;;0.52;;
33160;SDS011;19522;45.656;11.302;2022-11-11T02:48:44;1.02;;;0.60;;
33160;SDS011;19522;45.656;11.302;2022-11-11T02:51:09;0.88;;;0.50;;
33160;SDS011;19522;45.656;11.302;2022-11-11T02:53:34;1.25;;;0.57;;
33160;SDS011;19522;45.656;11.302;2022-11-11T02:56:00;1.65;;;0.50;;
33160;SDS011;19522;45.656;11.302;2022-11-11T02:58:26;1.83;;;0.50;;
33160;SDS011;19522;45.656;11.302;2022-11-11T03:00:51;1.13;;;0.50;;
33160;SDS011;19522;45.656;11.302;2022-11-11T03:03:16;1.67;;;0.65;;
33160;SDS011;19522;45.656;11.302;2022-11-11T03:05:45;1.52;;;0.95;;
33160;SDS011;19522;45.656;11.302;2022-11-11T03:08:10;2.75;;;0.75;;
33160;SDS011;19522;45.656;11.302;2022-11-11T03:10:36;1.88;;;0.65;;
33160;SDS011;19522;45.656;11.302;2022-11-11T03:13:01;1.02;;;0.60;;
33160;SDS011;19522;45.656;11.302;2022-11-11T03:15:27;0.82;;;0.52;;
33160;SDS011;19522;45.656;11.302;2022-11-11T03:17:52;1.58;;;0.50;;
33160;SDS011;19522;45.656;11.302;2022-11-11T03:20:18;0.63;;;0.52;;
33160;SDS011;19522;45.656;11.302;2022-11-11T03:25:28;0.60;;;0.47;;
33160;SDS011;19522;45.656;11.302;2022-11-11T03:28:04;6.47;;;1.27;;
33160;SDS011;19522;45.656;11.302;2022-11-11T03:30:31;0.90;;;0.57;;
33160;SDS011;19522;45.656;11.302;2022-11-11T03:32:58;0.70;;;0.55;;
33160;SDS011;19522;45.656;11.302;2022-11-11T03:35:24;4.50;;;0.63;;
33160;SDS011;19522;45.656;11.302;2022-11-11T03:37:49;3.42;;;1.50;;
33160;SDS011;19522;45.656;11.302;2022-11-11T03:40:33;1.23;;;0.80;;
33160;SDS011;19522;45.656;11.302;2022-11-11T03:42:59;2.05;;;0.50;;
33160;SDS011;19522;45.656;11.302;2022-11-11T03:45:24;1.20;;;0.60;;
33160;SDS011;19522;45.656;11.302;2022-11-11T03:47:50;0.90;;;0.70;;
33160;SDS011;19522;45.656;11.302;2022-11-11T03:50:15;1.65;;;0.70;;
33160;SDS011;19522;45.656;11.302;2022-11-11T03:52:41;3.40;;;0.80;;
33160;SDS011;19522;45.656;11.302;2022-11-11T03:55:10;1.63;;;0.63;;
33160;SDS011;19522;45.656;11.302;2022-11-11T03:57:45;0.98;;;0.60;;
33160;SDS011;19522;45.656;11.302;2022-11-11T04:00:18;1.33;;;0.88;;
33160;SDS011;19522;45.656;11.302;2022-11-11T04:02:51;0.90;;;0.55;;
33160;SDS011;19522;45.656;11.302;2022-11-11T04:05:43;1.50;;;0.82;;
33160;SDS011;19522;45.656;11.302;2022-11-11T04:08:29;1.42;;;0.85;;
33160;SDS011;19522;45.656;11.302;2022-11-11T04:11:13;1.33;;;0.73;;
33160;SDS011;19522;45.656;11.302;2022-11-11T04:13:44;1.92;;;0.85;;
33160;SDS011;19522;45.656;11.302;2022-11-11T04:16:31;1.83;;;0.90;;
33160;SDS011;19522;45.656;11.302;2022-11-11T04:18:56;1.70;;;0.90;;
33160;SDS011;19522;45.656;11.302;2022-11-11T04:21:41;3.35;;;1.10;;
33160;SDS011;19522;45.656;11.302;2022-11-11T04:26:57;2.45;;;0.70;;
33160;SDS011;19522;45.656;11.302;2022-11-11T04:29:25;5.63;;;0.73;;
33160;SDS011;19522;45.656;11.302;2022-11-11T04:31:57;1.65;;;0.80;;
33160;SDS011;19522;45.656;11.302;2022-11-11T04:34:44;1.75;;;0.68;;
33160;SDS011;19522;45.656;11.302;2022-11-11T04:37:14;1.77;;;0.73;;
33160;SDS011;19522;45.656;11.302;2022-11-11T04:39:41;3.22;;;0.90;;
33160;SDS011;19522;45.656;11.302;2022-11-11T04:42:28;3.70;;;0.82;;
33160;SDS011;19522;45.656;11.302;2022-11-11T04:44:55;1.50;;;0.82;;
33160;SDS011;19522;45.656;11.302;2022-11-11T04:48:13;1.35;;;0.70;;
33160;SDS011;19522;45.656;11.302;2022-11-11T04:50:35;1.40;;;0.85;;
33160;SDS011;19522;45.656;11.302;2022-11-11T04:53:03;1.95;;;0.68;;
33160;SDS011;19522;45.656;11.302;2022-11-11T04:55:29;1.90;;;1.00;;
33160;SDS011;19522;45.656;11.302;2022-11-11T04:58:14;1.85;;;1.15;;
33160;SDS011;19522;45.656;11.302;2022-11-11T05:00:43;1.85;;;1.10;;
33160;SDS011;19522;45.656;11.302;2022-11-11T05:03:10;2.33;;;1.40;;
33160;SDS011;19522;45.656;11.302;2022-11-11T05:05:54;1.70;;;0.80;;
33160;SDS011;19522;45.656;11.302;2022-11-11T05:08:42;2.13;;;0.95;;
33160;SDS011;19522;45.656;11.302;2022-11-11T05:11:21;5.55;;;1.52;;
33160;SDS011;19522;45.656;11.302;2022-11-11T05:13:54;2.53;;;1.50;;
33160;SDS011;19522;45.656;11.302;2022-11-11T05:16:41;4.70;;;1.25;;
33160;SDS011;19522;45.656;11.302;2022-11-11T05:19:27;2.33;;;1.25;;
33160;SDS011;19522;45.656;11.302;2022-11-11T05:22:18;1.92;;;1.33;;
33160;SDS011;19522;45.656;11.302;2022-11-11T05:24:47;2.97;;;1.30;;
33160;SDS011;19522;45.656;11.302;2022-11-11T05:27:31;2.08;;;1.15;;
33160;SDS011;19522;45.656;11.302;2022-11-11T05:29:57;3.10;;;1.17;;
33160;SDS011;19522;45.656;11.302;2022-11-11T05:32:23;2.78;;;1.40;;
33160;SDS011;19522;45.656;11.302;2022-11-11T05:34:48;2.05;;;1.23;;
33160;SDS011;19522;45.656;11.302;2022-11-11T05:37:14;2.35;;;1.20;;
33160;SDS011;19522;45.656;11.302;2022-11-11T05:39:41;1.48;;;1.00;;
33160;SDS011;19522;45.656;11.302;2022-11-11T05:42:06;2.05;;;1.02;;
33160;SDS011;19522;45.656;11.302;2022-11-11T05:44:32;4.28;;;3.72;;
33160;SDS011;19522;45.656;11.302;2022-11-11T05:46:58;4.88;;;3.50;;
33160;SDS011;19522;45.656;11.302;2022-11-11T05:49:24;3.42;;;2.17;;
33160;SDS011;19522;45.656;11.302;2022-11-11T05:51:49;4.30;;;2.25;;
33160;SDS011;19522;45.656;11.302;2022-11-11T05:54:16;4.38;;;2.13;;
33160;SDS011;19522;45.656;11.302;2022-11-11T05:56:42;3.28;;;1.92;;
33160;SDS011;19522;45.656;11.302;2022-11-11T05:59:08;3.10;;;1.70;;
33160;SDS011;19522;45.656;11.302;2022-11-11T06:01:34;5.03;;;1.90;;
33160;SDS011;19522;45.656;11.302;2022-11-11T06:04:01;3.17;;;1.90;;
33160;SDS011;19522;45.656;11.302;2022-11-11T06:06:27;2.03;;;1.40;;
33160;SDS011;19522;45.656;11.302;2022-11-11T06:08:52;2.08;;;1.42;;
33160;SDS011;19522;45.656;11.302;2022-11-11T06:11:18;2.92;;;1.80;;
33160;SDS011;19522;45.656;11.302;2022-11-11T06:13:47;2.00;;;1.70;;
33160;SDS011;19522;45.656;11.302;2022-11-11T06:16:13;6.63;;;1.70;;
33160;SDS011;19522;45.656;11.302;2022-11-11T06:18:38;2.38;;;1.60;;
33160;SDS011;19522;45.656;11.302;2022-11-11T06:21:04;2.25;;;1.63;;
33160;SDS011;19522;45.656;11.302;2022-11-11T06:23:30;2.53;;;1.83;;
33160;SDS011;19522;45.656;11.302;2022-11-11T06:25:56;2.72;;;1.70;;
33160;SDS011;19522;45.656;11.302;2022-11-11T06:28:37;3.78;;;1.95;;
33160;SDS011;19522;45.656;11.302;2022-11-11T06:31:07;5.35;;;2.35;;
33160;SDS011;19522;45.656;11.302;2022-11-11T06:33:34;4.45;;;2.78;;
33160;SDS011;19522;45.656;11.302;2022-11-11T06:36:00;5.43;;;2.95;;
33160;SDS011;19522;45.656;11.302;2022-11-11T06:38:26;5.93;;;3.03;;
33160;SDS011;19522;45.656;11.302;2022-11-11T06:40:51;4.47;;;2.95;;
33160;SDS011;19522;45.656;11.302;2022-11-11T06:43:17;3.65;;;2.38;;
33160;SDS011;19522;45.656;11.302;2022-11-11T06:45:44;5.32;;;3.22;;
33160;SDS011;19522;45.656;11.302;2022-11-11T06:48:09;3.63;;;2.38;;
33160;SDS011;19522;45.656;11.302;2022-11-11T06:50:35;4.88;;;2.88;;
33160;SDS011;19522;45.656;11.302;2022-11-11T06:53:07;7.13;;;2.90;;
33160;SDS011;19522;45.656;11.302;2022-11-11T06:55:34;4.20;;;2.85;;
33160;SDS011;19522;45.656;11.302;2022-11-11T06:58:07;4.53;;;2.90;;
33160;SDS011;19522;45.656;11.302;2022-11-11T07:00:38;5.45;;;3.42;;
33160;SDS011;19522;45.656;11.302;2022-11-11T07:03:04;4.63;;;3.30;;
33160;SDS011;19522;45.656;11.302;2022-11-11T07:05:31;5.85;;;3.08;;
33160;SDS011;19522;45.656;11.302;2022-11-11T07:08:00;3.88;;;2.88;;
33160;SDS011;19522;45.656;11.302;2022-11-11T07:10:26;4.32;;;3.22;;
33160;SDS011;19522;45.656;11.302;2022-11-11T07:12:52;4.32;;;3.00;;
33160;SDS011;19522;45.656;11.302;2022-11-11T07:15:18;6.88;;;3.33;;
33160;SDS011;19522;45.656;11.302;2022-11-11T07:17:43;4.50;;;3.22;;
33160;SDS011;19522;45.656;11.302;2022-11-11T07:20:09;4.43;;;3.20;;
33160;SDS011;19522;45.656;11.302;2022-11-11T07:22:35;3.83;;;2.85;;
33160;SDS011;19522;45.656;11.302;2022-11-11T07:25:01;4.03;;;2.50;;
33160;SDS011;19522;45.656;11.302;2022-11-11T07:27:27;3.97;;;2.20;;
33160;SDS011;19522;45.656;11.302;2022-11-11T07:29:52;3.70;;;2.33;;
33160;SDS011;19522;45.656;11.302;2022-11-11T07:32:18;3.83;;;2.20;;
33160;SDS011;19522;45.656;11.302;2022-11-11T07:34:43;4.25;;;2.63;;
33160;SDS011;19522;45.656;11.302;2022-11-11T07:37:09;5.35;;;2.80;;
33160;SDS011;19522;45.656;11.302;2022-11-11T07:39:34;4.35;;;2.40;;
33160;SDS011;19522;45.656;11.302;2022-11-11T07:42:00;3.80;;;2.33;;
33160;SDS011;19522;45.656;11.302;2022-11-11T07:44:26;3.65;;;2.08;;
33160;SDS011;19522;45.656;11.302;2022-11-11T07:46:51;3.67;;;2.40;;
33160;SDS011;19522;45.656;11.302;2022-11-11T07:49:17;3.83;;;2.70;;
33160;SDS011;19522;45.656;11.302;2022-11-11T07:51:42;3.90;;;2.38;;
33160;SDS011;19522;45.656;11.302;2022-11-11T07:54:08;4.18;;;2.70;;
33160;SDS011;19522;45.656;11.302;2022-11-11T07:56:33;6.55;;;2.78;;
33160;SDS011;19522;45.656;11.302;2022-11-11T07:59:00;5.22;;;3.17;;
33160;SDS011;19522;45.656;11.302;2022-11-11T08:01:28;4.57;;;2.97;;
33160;SDS011;19522;45.656;11.302;2022-11-11T08:03:54;4.25;;;3.10;;
33160;SDS011;19522;45.656;11.302;2022-11-11T08:06:20;3.95;;;2.15;;
33160;SDS011;19522;45.656;11.302;2022-11-11T08:08:47;3.97;;;2.42;;
33160;SDS011;19522;45.656;11.302;2022-11-11T08:11:13;3.35;;;2.40;;
33160;SDS011;19522;45.656;11.302;2022-11-11T08:13:40;3.22;;;2.17;;
33160;SDS011;19522;45.656;11.302;2022-11-11T08:16:07;4.13;;;2.40;;
33160;SDS011;19522;45.656;11.302;2022-11-11T08:18:33;3.50;;;2.60;;
33160;SDS011;19522;45.656;11.302;2022-11-11T08:20:59;3.03;;;2.05;;
33160;SDS011;19522;45.656;11.302;2022-11-11T08:23:25;3.45;;;2.30;;
33160;SDS011;19522;45.656;11.302;2022-11-11T08:28:29;3.35;;;2.30;;
33160;SDS011;19522;45.656;11.302;2022-11-11T08:30:59;4.45;;;1.85;;
33160;SDS011;19522;45.656;11.302;2022-11-11T08:33:26;3.17;;;2.03;;
33160;SDS011;19522;45.656;11.302;2022-11-11T08:35:52;2.85;;;1.90;;
33160;SDS011;19522;45.656;11.302;2022-11-11T08:38:20;3.25;;;2.20;;
33160;SDS011;19522;45.656;11.302;2022-11-11T08:40:46;3.30;;;2.45;;
33160;SDS011;19522;45.656;11.302;2022-11-11T08:43:11;5.05;;;2.13;;
33160;SDS011;19522;45.656;11.302;2022-11-11T08:45:37;3.60;;;2.10;;
33160;SDS011;19522;45.656;11.302;2022-11-11T08:48:03;4.22;;;2.40;;
33160;SDS011;19522;45.656;11.302;2022-11-11T08:50:29;3.47;;;2.10;;
33160;SDS011;19522;45.656;11.302;2022-11-11T08:52:55;4.35;;;2.30;;
33160;SDS011;19522;45.656;11.302;2022-11-11T08:55:20;3.13;;;2.15;;
33160;SDS011;19522;45.656;11.302;2022-11-11T08:57:46;6.03;;;2.60;;
33160;SDS011;19522;45.656;11.302;2022-11-11T09:00:12;6.57;;;2.22;;
33160;SDS011;19522;45.656;11.302;2022-11-11T09:02:38;4.20;;;1.92;;
33160;SDS011;19522;45.656;11.302;2022-11-11T09:05:03;6.63;;;2.30;;
33160;SDS011;19522;45.656;11.302;2022-11-11T09:07:31;4.10;;;1.98;;
33160;SDS011;19522;45.656;11.302;2022-11-11T09:09:56;2.47;;;1.65;;
33160;SDS011;19522;45.656;11.302;2022-11-11T09:12:22;4.13;;;2.42;;
33160;SDS011;19522;45.656;11.302;2022-11-11T09:14:47;3.38;;;2.72;;
33160;SDS011;19522;45.656;11.302;2022-11-11T09:17:14;3.92;;;2.38;;
33160;SDS011;19522;45.656;11.302;2022-11-11T09:19:40;4.75;;;2.35;;
33160;SDS011;19522;45.656;11.302;2022-11-11T09:22:05;3.75;;;2.45;;
33160;SDS011;19522;45.656;11.302;2022-11-11T09:24:31;3.78;;;2.15;;
33160;SDS011;19522;45.656;11.302;2022-11-11T09:26:56;3.42;;;2.40;;
33160;SDS011;19522;45.656;11.302;2022-11-11T09:29:22;7.75;;;2.92;;
33160;SDS011;19522;45.656;11.302;2022-11-11T09:31:48;3.58;;;2.30;;
33160;SDS011;19522;45.656;11.302;2022-11-11T09:34:13;4.10;;;2.00;;
33160;SDS011;19522;45.656;11.302;2022-11-11T09:36:39;2.63;;;1.60;;
33160;SDS011;19522;45.656;11.302;2022-11-11T09:39:05;3.83;;;1.85;;
33160;SDS011;19522;45.656;11.302;2022-11-11T09:44:08;1.70;;;1.10;;
33160;SDS011;19522;45.656;11.302;2022-11-11T09:47:19;3.78;;;1.45;;
33160;SDS011;19522;45.656;11.302;2022-11-11T09:50:03;3.33;;;1.60;;
33160;SDS011;19522;45.656;11.302;2022-11-11T09:52:43;4.65;;;1.42;;
33160;SDS011;19522;45.656;11.302;2022-11-11T09:58:01;2.63;;;1.00;;
33160;SDS011;19522;45.656;11.302;2022-11-11T10:00:34;3.55;;;1.13;;
33160;SDS011;19522;45.656;11.302;2022-11-11T10:08:16;4.05;;;1.10;;
33160;SDS011;19522;45.656;11.302;2022-11-11T10:10:53;4.07;;;1.23;;
33160;SDS011;19522;45.656;11.302;2022-11-11T10:13:19;2.35;;;1.10;;
33160;SDS011;19522;45.656;11.302;2022-11-11T10:16:03;2.15;;;1.00;;
33160;SDS011;19522;45.656;11.302;2022-11-11T10:21:22;5.00;;;1.35;;
33160;SDS011;19522;45.656;11.302;2022-11-11T10:23:54;4.97;;;1.30;;
33160;SDS011;19522;45.656;11.302;2022-11-11T10:26:31;5.60;;;1.33;;
33160;SDS011;19522;45.656;11.302;2022-11-11T10:29:02;4.15;;;1.20;;
33160;SDS011;19522;45.656;11.302;2022-11-11T10:31:34;4.10;;;1.08;;
33160;SDS011;19522;45.656;11.302;2022-11-11T10:34:10;4.60;;;1.30;;
33160;SDS011;19522;45.656;11.302;2022-11-11T10:42:41;4.25;;;1.30;;
33160;SDS011;19522;45.656;11.302;2022-11-11T10:45:11;3.65;;;1.15;;
33160;SDS011;19522;45.656;11.302;2022-11-11T10:50:33;4.53;;;1.40;;
33160;SDS011;19522;45.656;11.302;2022-11-11T10:55:54;2.67;;;1.10;;
33160;SDS011;19522;45.656;11.302;2022-11-11T11:01:04;2.97;;;1.10;;
33160;SDS011;19522;45.656;11.302;2022-11-11T11:03:37;3.05;;;1.38;;
33160;SDS011;19522;45.656;11.302;2022-11-11T11:06:10;2.92;;;1.40;;
33160;SDS011;19522;45.656;11.302;2022-11-11T11:09:00;2.35;;;1.33;;
33160;SDS011;19522;45.656;11.302;2022-11-11T11:11:40;2.58;;;1.30;;
33160;SDS011;19522;45.656;11.302;2022-11-11T11:14:33;2.50;;;1.10;;
33160;SDS011;19522;45.656;11.302;2022-11-11T11:19:37;3.05;;;0.98;;
33160;SDS011;19522;45.656;11.302;2022-11-11T11:22:03;3.20;;;1.25;;
33160;SDS011;19522;45.656;11.302;2022-11-11T11:26:59;2.15;;;1.20;;
33160;SDS011;19522;45.656;11.302;2022-11-11T11:32:13;2.15;;;1.30;;
33160;SDS011;19522;45.656;11.302;2022-11-11T11:34:50;2.30;;;1.10;;
33160;SDS011;19522;45.656;11.302;2022-11-11T11:37:18;2.85;;;0.90;;
33160;SDS011;19522;45.656;11.302;2022-11-11T11:39:45;1.67;;;1.10;;
33160;SDS011;19522;45.656;11.302;2022-11-11T11:42:27;4.72;;;1.40;;
33160;SDS011;19522;45.656;11.302;2022-11-11T11:44:54;4.03;;;1.92;;
33160;SDS011;19522;45.656;11.302;2022-11-11T11:55:34;1.60;;;1.10;;
33160;SDS011;19522;45.656;11.302;2022-11-11T12:01:18;1.65;;;0.93;;
33160;SDS011;19522;45.656;11.302;2022-11-11T12:17:01;3.25;;;1.40;;
33160;SDS011;19522;45.656;11.302;2022-11-11T12:25:38;2.58;;;1.13;;
33160;SDS011;19522;45.656;11.302;2022-11-11T12:30:53;1.35;;;1.00;;
33160;SDS011;19522;45.656;11.302;2022-11-11T12:33:53;1.45;;;1.13;;
33160;SDS011;19522;45.656;11.302;2022-11-11T12:45:04;2.33;;;1.20;;
33160;SDS011;19522;45.656;11.302;2022-11-11T12:50:25;3.55;;;1.30;;
33160;SDS011;19522;45.656;11.302;2022-11-11T12:53:20;2.05;;;1.30;;
33160;SDS011;19522;45.656;11.302;2022-11-11T12:56:09;3.83;;;1.50;;
33160;SDS011;19522;45.656;11.302;2022-11-11T13:01:56;2.30;;;1.40;;
33160;SDS011;19522;45.656;11.302;2022-11-11T13:15:29;2.00;;;1.20;;
33160;SDS011;19522;45.656;11.302;2022-11-11T13:17:57;3.85;;;1.67;;
33160;SDS011;19522;45.656;11.302;2022-11-11T13:23:40;2.00;;;1.40;;
33160;SDS011;19522;45.656;11.302;2022-11-11T13:26:11;2.20;;;1.42;;
33160;SDS011;19522;45.656;11.302;2022-11-11T13:28:56;2.90;;;1.73;;
33160;SDS011;19522;45.656;11.302;2022-11-11T13:31:50;5.10;;;1.98;;
33160;SDS011;19522;45.656;11.302;2022-11-11T13:34:17;4.55;;;2.00;;
33160;SDS011;19522;45.656;11.302;2022-11-11T13:36:48;5.10;;;2.20;;
33160;SDS011;19522;45.656;11.302;2022-11-11T13:39:27;4.63;;;2.40;;
33160;SDS011;19522;45.656;11.302;2022-11-11T13:41:56;4.30;;;2.00;;
33160;SDS011;19522;45.656;11.302;2022-11-11T13:44:24;3.40;;;2.17;;
33160;SDS011;19522;45.656;11.302;2022-11-11T13:47:01;5.43;;;2.47;;
33160;SDS011;19522;45.656;11.302;2022-11-11T13:52:37;4.55;;;2.55;;
33160;SDS011;19522;45.656;11.302;2022-11-11T13:57:49;6.05;;;2.90;;
33160;SDS011;19522;45.656;11.302;2022-11-11T14:02:42;5.63;;;2.50;;
33160;SDS011;19522;45.656;11.302;2022-11-11T14:20:53;5.65;;;3.20;;
33160;SDS011;19522;45.656;11.302;2022-11-11T14:23:25;7.03;;;3.08;;
33160;SDS011;19522;45.656;11.302;2022-11-11T14:28:47;4.35;;;2.97;;
33160;SDS011;19522;45.656;11.302;2022-11-11T14:36:30;5.53;;;3.05;;
33160;SDS011;19522;45.656;11.302;2022-11-11T14:39:11;4.93;;;2.92;;
33160;SDS011;19522;45.656;11.302;2022-11-11T14:41:49;7.97;;;3.38;;
33160;SDS011;19522;45.656;11.302;2022-11-11T14:52:27;6.88;;;3.90;;
33160;SDS011;19522;45.656;11.302;2022-11-11T14:58:13;7.82;;;3.83;;
33160;SDS011;19522;45.656;11.302;2022-11-11T15:00:33;7.93;;;3.85;;
33160;SDS011;19522;45.656;11.302;2022-11-11T15:03:26;8.82;;;3.55;;
33160;SDS011;19522;45.656;11.302;2022-11-11T15:06:05;5.82;;;3.67;;
33160;SDS011;19522;45.656;11.302;2022-11-11T15:08:45;7.18;;;4.53;;
33160;SDS011;19522;45.656;11.302;2022-11-11T15:27:59;7.97;;;5.30;;
33160;SDS011;19522;45.656;11.302;2022-11-11T15:30:46;8.10;;;4.85;;
33160;SDS011;19522;45.656;11.302;2022-11-11T15:33:16;7.43;;;5.00;;
33160;SDS011;19522;45.656;11.302;2022-11-11T15:36:08;9.98;;;6.00;;
33160;SDS011;19522;45.656;11.302;2022-11-11T15:38:42;11.32;;;6.68;;
33160;SDS011;19522;45.656;11.302;2022-11-11T15:41:19;12.27;;;6.30;;
33160;SDS011;19522;45.656;11.302;2022-11-11T15:43:48;8.45;;;4.95;;
33160;SDS011;19522;45.656;11.302;2022-11-11T15:46:24;10.25;;;5.47;;
33160;SDS011;19522;45.656;11.302;2022-11-11T15:48:54;8.15;;;5.50;;
33160;SDS011;19522;45.656;11.302;2022-11-11T15:53:45;11.55;;;5.60;;
33160;SDS011;19522;45.656;11.302;2022-11-11T15:56:11;10.27;;;6.15;;
33160;SDS011;19522;45.656;11.302;2022-11-11T15:58:52;9.52;;;5.85;;
33160;SDS011;19522;45.656;11.302;2022-11-11T16:01:18;13.02;;;6.85;;
33160;SDS011;19522;45.656;11.302;2022-11-11T16:03:49;10.07;;;6.13;;
33160;SDS011;19522;45.656;11.302;2022-11-11T16:06:14;14.10;;;6.75;;
33160;SDS011;19522;45.656;11.302;2022-11-11T16:08:50;12.95;;;7.55;;
33160;SDS011;19522;45.656;11.302;2022-11-11T16:11:18;14.57;;;10.13;;
33160;SDS011;19522;45.656;11.302;2022-11-11T16:18:52;8.55;;;5.22;;
33160;SDS011;19522;45.656;11.302;2022-11-11T16:21:29;8.23;;;6.28;;
33160;SDS011;19522;45.656;11.302;2022-11-11T16:24:01;8.55;;;6.10;;
33160;SDS011;19522;45.656;11.302;2022-11-11T16:26:30;13.40;;;9.25;;
33160;SDS011;19522;45.656;11.302;2022-11-11T16:28:58;15.52;;;10.93;;
33160;SDS011;19522;45.656;11.302;2022-11-11T16:33:59;9.27;;;7.00;;
33160;SDS011;19522;45.656;11.302;2022-11-11T16:37:00;10.68;;;6.70;;
33160;SDS011;19522;45.656;11.302;2022-11-11T16:39:27;13.35;;;8.35;;
33160;SDS011;19522;45.656;11.302;2022-11-11T16:41:53;10.40;;;8.27;;
33160;SDS011;19522;45.656;11.302;2022-11-11T16:44:37;18.05;;;13.02;;
33160;SDS011;19522;45.656;11.302;2022-11-11T16:47:06;37.75;;;25.55;;
33160;SDS011;19522;45.656;11.302;2022-11-11T16:50:01;21.60;;;15.52;;
33160;SDS011;19522;45.656;11.302;2022-11-11T16:52:30;17.58;;;11.68;;
33160;SDS011;19522;45.656;11.302;2022-11-11T16:55:09;15.15;;;11.77;;
33160;SDS011;19522;45.656;11.302;2022-11-11T16:57:42;12.75;;;11.10;;
33160;SDS011;19522;45.656;11.302;2022-11-11T17:00:11;11.90;;;10.02;;
33160;SDS011;19522;45.656;11.302;2022-11-11T17:02:39;16.85;;;12.13;;
33160;SDS011;19522;45.656;11.302;2022-11-11T17:05:05;24.30;;;14.32;;
33160;SDS011;19522;45.656;11.302;2022-11-11T17:12:32;27.70;;;20.45;;
33160;SDS011;19522;45.656;11.302;2022-11-11T17:14:59;15.68;;;12.32;;
33160;SDS011;19522;45.656;11.302;2022-11-11T17:17:30;19.33;;;11.98;;
33160;SDS011;19522;45.656;11.302;2022-11-11T17:19:57;17.48;;;13.25;;
33160;SDS011;19522;45.656;11.302;2022-11-11T17:22:26;20.60;;;15.05;;
33160;SDS011;19522;45.656;11.302;2022-11-11T17:24:54;19.88;;;15.18;;
33160;SDS011;19522;45.656;11.302;2022-11-11T17:27:19;20.45;;;14.65;;
33160;SDS011;19522;45.656;11.302;2022-11-11T17:29:45;19.45;;;15.27;;
33160;SDS011;19522;45.656;11.302;2022-11-11T17:32:12;18.02;;;12.90;;
33160;SDS011;19522;45.656;11.302;2022-11-11T17:34:37;18.15;;;14.23;;
33160;SDS011;19522;45.656;11.302;2022-11-11T17:37:03;21.25;;;15.35;;
33160;SDS011;19522;45.656;11.302;2022-11-11T17:39:29;24.73;;;16.13;;
33160;SDS011;19522;45.656;11.302;2022-11-11T17:41:54;26.98;;;18.33;;
33160;SDS011;19522;45.656;11.302;2022-11-11T17:44:20;27.80;;;19.35;;
33160;SDS011;19522;45.656;11.302;2022-11-11T17:46:45;22.00;;;16.95;;
33160;SDS011;19522;45.656;11.302;2022-11-11T17:49:11;69.13;;;46.33;;
33160;SDS011;19522;45.656;11.302;2022-11-11T17:51:36;30.67;;;22.23;;
33160;SDS011;19522;45.656;11.302;2022-11-11T17:54:02;22.23;;;17.17;;
33160;SDS011;19522;45.656;11.302;2022-11-11T17:56:27;22.02;;;16.38;;
33160;SDS011;19522;45.656;11.302;2022-11-11T17:58:53;23.70;;;17.65;;
33160;SDS011;19522;45.656;11.302;2022-11-11T18:01:21;20.88;;;15.57;;
33160;SDS011;19522;45.656;11.302;2022-11-11T18:03:47;34.38;;;22.67;;